sensor_id;sensor_type;location;lat;lon;timestamp;pressure;altitude;pressure_sealevel;temperature
19644;BMP180;9970;-36.854;174.870;2023-08-06T00:00:38;102248.00;;;14.50
19644;BMP180;9970;-36.854;174.870;2023-08-06T00:03:12;102243.00;;;14.50
19644;BMP180;9970;-36.854;174.870;2023-08-06T00:05:45;102238.00;;;14.60
19644;BMP180;9970;-36.854;174.870;2023-08-06T00:08:18;102241.00;;;14.60
19644;BMP180;9970;-36.854;174.870;2023-08-06T00:10:50;102234.00;;;14.60
19644;BMP180;9970;-36.854;174.870;2023-08-06T00:13:23;102229.00;;;14.60
19644;BMP180;9970;-36.854;174.870;2023-08-06T00:16:07;102224.00;;;14.70
19644;BMP180;9970;-36.854;174.870;2023-08-06T00:18:30;102217.00;;;14.70
19644;BMP180;9970;-36.854;174.870;2023-08-06T00:21:03;102208.00;;;14.70
19644;BMP180;9970;-36.854;174.870;2023-08-06T00:23:36;102206.00;;;14.70
19644;BMP180;9970;-36.854;174.870;2023-08-06T00:26:10;102201.00;;;14.80
19644;BMP180;9970;-36.854;174.870;2023-08-06T00:28:42;102203.00;;;14.70
19644;BMP180;9970;-36.854;174.870;2023-08-06T00:31:16;102200.00;;;14.80
19644;BMP180;9970;-36.854;174.870;2023-08-06T00:33:48;102185.00;;;14.80
19644;BMP180;9970;-36.854;174.870;2023-08-06T00:36:22;102181.00;;;14.80
19644;BMP180;9970;-36.854;174.870;2023-08-06T00:38:55;102178.00;;;14.80
19644;BMP180;9970;-36.854;174.870;2023-08-06T00:41:28;102180.00;;;14.80
19644;BMP180;9970;-36.854;174.870;2023-08-06T00:44:01;102176.00;;;14.80
19644;BMP180;9970;-36.854;174.870;2023-08-06T00:46:36;102175.00;;;14.80
19644;BMP180;9970;-36.854;174.870;2023-08-06T00:49:09;102161.00;;;14.80
19644;BMP180;9970;-36.854;174.870;2023-08-06T00:51:43;102163.00;;;14.80
19644;BMP180;9970;-36.854;174.870;2023-08-06T00:54:16;102168.00;;;14.80
19644;BMP180;9970;-36.854;174.870;2023-08-06T00:56:49;102156.00;;;14.90
19644;BMP180;9970;-36.854;174.870;2023-08-06T00:59:22;102152.00;;;14.90
19644;BMP180;9970;-36.854;174.870;2023-08-06T01:01:55;102148.00;;;14.90
19644;BMP180;9970;-36.854;174.870;2023-08-06T01:04:33;102145.00;;;14.90
19644;BMP180;9970;-36.854;174.870;2023-08-06T01:07:25;102143.00;;;14.90
19644;BMP180;9970;-36.854;174.870;2023-08-06T01:15:33;102126.00;;;14.90
19644;BMP180;9970;-36.854;174.870;2023-08-06T01:18:07;102115.00;;;15.00
19644;BMP180;9970;-36.854;174.870;2023-08-06T01:20:40;102114.00;;;15.00
19644;BMP180;9970;-36.854;174.870;2023-08-06T01:23:13;102112.00;;;15.10
19644;BMP180;9970;-36.854;174.870;2023-08-06T01:31:20;102114.00;;;15.20
19644;BMP180;9970;-36.854;174.870;2023-08-06T01:33:53;102094.00;;;15.20
19644;BMP180;9970;-36.854;174.870;2023-08-06T01:36:26;102103.00;;;15.20
19644;BMP180;9970;-36.854;174.870;2023-08-06T01:39:01;102101.00;;;15.20
19644;BMP180;9970;-36.854;174.870;2023-08-06T01:41:34;102102.00;;;15.20
19644;BMP180;9970;-36.854;174.870;2023-08-06T01:44:07;102095.00;;;15.20
19644;BMP180;9970;-36.854;174.870;2023-08-06T01:46:57;102091.00;;;15.20
19644;BMP180;9970;-36.854;174.870;2023-08-06T01:52:44;102087.00;;;15.20
19644;BMP180;9970;-36.854;174.870;2023-08-06T01:55:17;102087.00;;;15.20
19644;BMP180;9970;-36.854;174.870;2023-08-06T01:57:50;102081.00;;;15.20
19644;BMP180;9970;-36.854;174.870;2023-08-06T02:00:23;102085.00;;;15.20
19644;BMP180;9970;-36.854;174.870;2023-08-06T02:02:56;102086.00;;;15.20
19644;BMP180;9970;-36.854;174.870;2023-08-06T02:05:29;102082.00;;;15.20
19644;BMP180;9970;-36.854;174.870;2023-08-06T02:08:02;102078.00;;;15.20
19644;BMP180;9970;-36.854;174.870;2023-08-06T02:10:35;102078.00;;;15.20
19644;BMP180;9970;-36.854;174.870;2023-08-06T02:13:08;102075.00;;;15.10
19644;BMP180;9970;-36.854;174.870;2023-08-06T02:15:44;102085.00;;;15.10
19644;BMP180;9970;-36.854;174.870;2023-08-06T02:18:19;102067.00;;;15.10
19644;BMP180;9970;-36.854;174.870;2023-08-06T02:20:59;102073.00;;;15.10
19644;BMP180;9970;-36.854;174.870;2023-08-06T02:23:32;102061.00;;;15.10
19644;BMP180;9970;-36.854;174.870;2023-08-06T02:26:06;102065.00;;;15.10
19644;BMP180;9970;-36.854;174.870;2023-08-06T02:28:39;102065.00;;;15.10
19644;BMP180;9970;-36.854;174.870;2023-08-06T02:31:12;102057.00;;;15.10
19644;BMP180;9970;-36.854;174.870;2023-08-06T02:33:45;102059.00;;;15.10
19644;BMP180;9970;-36.854;174.870;2023-08-06T02:36:18;102056.00;;;15.10
19644;BMP180;9970;-36.854;174.870;2023-08-06T02:38:52;102059.00;;;15.10
19644;BMP180;9970;-36.854;174.870;2023-08-06T02:41:25;102042.00;;;15.10
19644;BMP180;9970;-36.854;174.870;2023-08-06T02:43:57;102054.00;;;15.10
19644;BMP180;9970;-36.854;174.870;2023-08-06T02:46:30;102046.00;;;15.10
19644;BMP180;9970;-36.854;174.870;2023-08-06T02:49:04;102043.00;;;15.10
19644;BMP180;9970;-36.854;174.870;2023-08-06T02:51:37;102040.00;;;15.10
19644;BMP180;9970;-36.854;174.870;2023-08-06T02:54:10;102049.00;;;15.10
19644;BMP180;9970;-36.854;174.870;2023-08-06T02:56:44;102051.00;;;15.10
19644;BMP180;9970;-36.854;174.870;2023-08-06T02:59:17;102047.00;;;15.10
19644;BMP180;9970;-36.854;174.870;2023-08-06T03:01:50;102036.00;;;15.10
19644;BMP180;9970;-36.854;174.870;2023-08-06T03:04:23;102049.00;;;15.10
19644;BMP180;9970;-36.854;174.870;2023-08-06T03:06:57;102039.00;;;15.10
19644;BMP180;9970;-36.854;174.870;2023-08-06T03:09:30;102044.00;;;15.10
19644;BMP180;9970;-36.854;174.870;2023-08-06T03:12:03;102040.00;;;15.00
19644;BMP180;9970;-36.854;174.870;2023-08-06T03:14:36;102033.00;;;15.00
19644;BMP180;9970;-36.854;174.870;2023-08-06T03:17:09;102026.00;;;15.00
19644;BMP180;9970;-36.854;174.870;2023-08-06T03:19:42;102033.00;;;15.00
19644;BMP180;9970;-36.854;174.870;2023-08-06T03:22:15;102042.00;;;15.00
19644;BMP180;9970;-36.854;174.870;2023-08-06T03:24:50;102042.00;;;15.00
19644;BMP180;9970;-36.854;174.870;2023-08-06T03:27:25;102028.00;;;15.00
19644;BMP180;9970;-36.854;174.870;2023-08-06T03:29:58;102037.00;;;15.00
19644;BMP180;9970;-36.854;174.870;2023-08-06T03:32:33;102038.00;;;15.00
19644;BMP180;9970;-36.854;174.870;2023-08-06T03:35:06;102037.00;;;15.00
19644;BMP180;9970;-36.854;174.870;2023-08-06T03:37:40;102038.00;;;15.00
19644;BMP180;9970;-36.854;174.870;2023-08-06T03:40:13;102036.00;;;15.00
19644;BMP180;9970;-36.854;174.870;2023-08-06T03:42:46;102030.00;;;15.00
19644;BMP180;9970;-36.854;174.870;2023-08-06T03:45:19;102031.00;;;15.00
19644;BMP180;9970;-36.854;174.870;2023-08-06T03:47:52;102032.00;;;15.00
19644;BMP180;9970;-36.854;174.870;2023-08-06T03:50:25;102030.00;;;15.00
19644;BMP180;9970;-36.854;174.870;2023-08-06T03:52:58;102029.00;;;15.00
19644;BMP180;9970;-36.854;174.870;2023-08-06T03:55:31;102026.00;;;15.00
19644;BMP180;9970;-36.854;174.870;2023-08-06T03:58:04;102019.00;;;15.00
19644;BMP180;9970;-36.854;174.870;2023-08-06T04:00:37;102025.00;;;15.00
19644;BMP180;9970;-36.854;174.870;2023-08-06T04:03:10;102027.00;;;14.90
19644;BMP180;9970;-36.854;174.870;2023-08-06T04:05:44;102032.00;;;15.00
19644;BMP180;9970;-36.854;174.870;2023-08-06T04:08:21;102030.00;;;14.90
19644;BMP180;9970;-36.854;174.870;2023-08-06T04:10:54;102023.00;;;14.90
19644;BMP180;9970;-36.854;174.870;2023-08-06T04:13:27;102029.00;;;14.90
19644;BMP180;9970;-36.854;174.870;2023-08-06T04:16:03;102029.00;;;14.90
19644;BMP180;9970;-36.854;174.870;2023-08-06T04:18:36;102025.00;;;14.90
19644;BMP180;9970;-36.854;174.870;2023-08-06T04:21:09;102020.00;;;14.90
19644;BMP180;9970;-36.854;174.870;2023-08-06T04:23:46;102021.00;;;14.80
19644;BMP180;9970;-36.854;174.870;2023-08-06T04:26:19;102024.00;;;14.80
19644;BMP180;9970;-36.854;174.870;2023-08-06T04:28:53;102025.00;;;14.80
19644;BMP180;9970;-36.854;174.870;2023-08-06T04:31:25;102027.00;;;14.80
19644;BMP180;9970;-36.854;174.870;2023-08-06T04:33:59;102034.00;;;14.80
19644;BMP180;9970;-36.854;174.870;2023-08-06T04:36:32;102027.00;;;14.70
19644;BMP180;9970;-36.854;174.870;2023-08-06T04:39:06;102031.00;;;14.70
19644;BMP180;9970;-36.854;174.870;2023-08-06T04:41:39;102029.00;;;14.70
19644;BMP180;9970;-36.854;174.870;2023-08-06T04:44:12;102035.00;;;14.70
19644;BMP180;9970;-36.854;174.870;2023-08-06T04:46:45;102024.00;;;14.70
19644;BMP180;9970;-36.854;174.870;2023-08-06T04:49:19;102027.00;;;14.70
19644;BMP180;9970;-36.854;174.870;2023-08-06T04:51:52;102025.00;;;14.70
19644;BMP180;9970;-36.854;174.870;2023-08-06T04:54:26;102028.00;;;14.60
19644;BMP180;9970;-36.854;174.870;2023-08-06T04:56:59;102028.00;;;14.60
19644;BMP180;9970;-36.854;174.870;2023-08-06T04:59:32;102028.00;;;14.60
19644;BMP180;9970;-36.854;174.870;2023-08-06T05:02:05;102032.00;;;14.60
19644;BMP180;9970;-36.854;174.870;2023-08-06T05:04:38;102034.00;;;14.60
19644;BMP180;9970;-36.854;174.870;2023-08-06T05:07:14;102029.00;;;14.60
19644;BMP180;9970;-36.854;174.870;2023-08-06T05:09:47;102027.00;;;14.60
19644;BMP180;9970;-36.854;174.870;2023-08-06T05:12:20;102030.00;;;14.60
19644;BMP180;9970;-36.854;174.870;2023-08-06T05:14:53;102035.00;;;14.60
19644;BMP180;9970;-36.854;174.870;2023-08-06T05:17:30;102037.00;;;14.50
19644;BMP180;9970;-36.854;174.870;2023-08-06T05:20:04;102035.00;;;14.50
19644;BMP180;9970;-36.854;174.870;2023-08-06T05:22:38;102031.00;;;14.40
19644;BMP180;9970;-36.854;174.870;2023-08-06T05:25:12;102033.00;;;14.40
19644;BMP180;9970;-36.854;174.870;2023-08-06T05:27:45;102028.00;;;14.40
19644;BMP180;9970;-36.854;174.870;2023-08-06T05:30:18;102022.00;;;14.40
19644;BMP180;9970;-36.854;174.870;2023-08-06T05:32:51;102024.00;;;14.40
19644;BMP180;9970;-36.854;174.870;2023-08-06T05:35:24;102026.00;;;14.30
19644;BMP180;9970;-36.854;174.870;2023-08-06T05:37:57;102033.00;;;14.30
19644;BMP180;9970;-36.854;174.870;2023-08-06T05:40:30;102037.00;;;14.30
19644;BMP180;9970;-36.854;174.870;2023-08-06T05:43:05;102035.00;;;14.30
19644;BMP180;9970;-36.854;174.870;2023-08-06T05:45:38;102037.00;;;14.30
19644;BMP180;9970;-36.854;174.870;2023-08-06T05:48:11;102042.00;;;14.30
19644;BMP180;9970;-36.854;174.870;2023-08-06T05:50:44;102038.00;;;14.30
19644;BMP180;9970;-36.854;174.870;2023-08-06T05:53:18;102045.00;;;14.20
19644;BMP180;9970;-36.854;174.870;2023-08-06T05:55:50;102046.00;;;14.20
19644;BMP180;9970;-36.854;174.870;2023-08-06T05:58:24;102037.00;;;14.20
19644;BMP180;9970;-36.854;174.870;2023-08-06T06:00:58;102040.00;;;14.20
19644;BMP180;9970;-36.854;174.870;2023-08-06T06:03:31;102048.00;;;14.20
19644;BMP180;9970;-36.854;174.870;2023-08-06T06:06:04;102040.00;;;14.20
19644;BMP180;9970;-36.854;174.870;2023-08-06T06:08:37;102039.00;;;14.20
19644;BMP180;9970;-36.854;174.870;2023-08-06T06:11:10;102041.00;;;14.20
19644;BMP180;9970;-36.854;174.870;2023-08-06T06:13:43;102040.00;;;14.20
19644;BMP180;9970;-36.854;174.870;2023-08-06T06:16:16;102036.00;;;14.20
19644;BMP180;9970;-36.854;174.870;2023-08-06T06:18:49;102037.00;;;14.10
19644;BMP180;9970;-36.854;174.870;2023-08-06T06:21:23;102046.00;;;14.10
19644;BMP180;9970;-36.854;174.870;2023-08-06T06:23:56;102047.00;;;14.10
19644;BMP180;9970;-36.854;174.870;2023-08-06T06:26:29;102042.00;;;14.10
19644;BMP180;9970;-36.854;174.870;2023-08-06T06:29:02;102050.00;;;14.10
19644;BMP180;9970;-36.854;174.870;2023-08-06T06:31:36;102039.00;;;14.10
19644;BMP180;9970;-36.854;174.870;2023-08-06T06:34:10;102044.00;;;14.10
19644;BMP180;9970;-36.854;174.870;2023-08-06T06:36:43;102038.00;;;14.10
19644;BMP180;9970;-36.854;174.870;2023-08-06T06:39:17;102039.00;;;14.10
19644;BMP180;9970;-36.854;174.870;2023-08-06T06:41:50;102039.00;;;14.00
19644;BMP180;9970;-36.854;174.870;2023-08-06T06:44:24;102047.00;;;14.10
19644;BMP180;9970;-36.854;174.870;2023-08-06T06:46:57;102046.00;;;14.00
19644;BMP180;9970;-36.854;174.870;2023-08-06T06:49:30;102040.00;;;14.00
19644;BMP180;9970;-36.854;174.870;2023-08-06T06:52:03;102036.00;;;14.00
19644;BMP180;9970;-36.854;174.870;2023-08-06T06:54:36;102038.00;;;14.00
19644;BMP180;9970;-36.854;174.870;2023-08-06T06:57:10;102040.00;;;14.00
19644;BMP180;9970;-36.854;174.870;2023-08-06T06:59:43;102042.00;;;14.00
19644;BMP180;9970;-36.854;174.870;2023-08-06T07:02:16;102045.00;;;13.90
19644;BMP180;9970;-36.854;174.870;2023-08-06T07:04:49;102050.00;;;13.90
19644;BMP180;9970;-36.854;174.870;2023-08-06T07:07:23;102050.00;;;13.90
19644;BMP180;9970;-36.854;174.870;2023-08-06T07:09:55;102049.00;;;13.90
19644;BMP180;9970;-36.854;174.870;2023-08-06T07:12:28;102043.00;;;13.90
19644;BMP180;9970;-36.854;174.870;2023-08-06T07:15:02;102042.00;;;13.90
19644;BMP180;9970;-36.854;174.870;2023-08-06T07:17:35;102038.00;;;13.90
19644;BMP180;9970;-36.854;174.870;2023-08-06T07:20:11;102039.00;;;13.90
19644;BMP180;9970;-36.854;174.870;2023-08-06T07:22:45;102041.00;;;13.80
19644;BMP180;9970;-36.854;174.870;2023-08-06T07:25:18;102037.00;;;13.80
19644;BMP180;9970;-36.854;174.870;2023-08-06T07:27:51;102041.00;;;13.80
19644;BMP180;9970;-36.854;174.870;2023-08-06T07:30:25;102039.00;;;13.80
19644;BMP180;9970;-36.854;174.870;2023-08-06T07:32:58;102045.00;;;13.70
19644;BMP180;9970;-36.854;174.870;2023-08-06T07:35:31;102034.00;;;13.70
19644;BMP180;9970;-36.854;174.870;2023-08-06T07:38:04;102044.00;;;13.70
19644;BMP180;9970;-36.854;174.870;2023-08-06T07:40:38;102040.00;;;13.70
19644;BMP180;9970;-36.854;174.870;2023-08-06T07:43:11;102038.00;;;13.70
19644;BMP180;9970;-36.854;174.870;2023-08-06T07:45:44;102045.00;;;13.70
19644;BMP180;9970;-36.854;174.870;2023-08-06T07:48:18;102052.00;;;13.70
19644;BMP180;9970;-36.854;174.870;2023-08-06T07:50:52;102041.00;;;13.60
19644;BMP180;9970;-36.854;174.870;2023-08-06T07:53:26;102048.00;;;13.60
19644;BMP180;9970;-36.854;174.870;2023-08-06T07:56:00;102046.00;;;13.60
19644;BMP180;9970;-36.854;174.870;2023-08-06T07:58:33;102046.00;;;13.60
19644;BMP180;9970;-36.854;174.870;2023-08-06T08:01:07;102054.00;;;13.50
19644;BMP180;9970;-36.854;174.870;2023-08-06T08:03:40;102042.00;;;13.50
19644;BMP180;9970;-36.854;174.870;2023-08-06T08:06:13;102042.00;;;13.50
19644;BMP180;9970;-36.854;174.870;2023-08-06T08:08:47;102045.00;;;13.40
19644;BMP180;9970;-36.854;174.870;2023-08-06T08:11:20;102040.00;;;13.30
19644;BMP180;9970;-36.854;174.870;2023-08-06T08:13:53;102052.00;;;13.30
19644;BMP180;9970;-36.854;174.870;2023-08-06T08:16:26;102044.00;;;13.30
19644;BMP180;9970;-36.854;174.870;2023-08-06T08:18:59;102048.00;;;13.20
19644;BMP180;9970;-36.854;174.870;2023-08-06T08:21:32;102045.00;;;13.20
19644;BMP180;9970;-36.854;174.870;2023-08-06T08:24:06;102049.00;;;13.20
19644;BMP180;9970;-36.854;174.870;2023-08-06T08:26:39;102044.00;;;13.10
19644;BMP180;9970;-36.854;174.870;2023-08-06T08:29:12;102041.00;;;13.10
19644;BMP180;9970;-36.854;174.870;2023-08-06T08:31:45;102030.00;;;13.00
19644;BMP180;9970;-36.854;174.870;2023-08-06T08:34:20;102033.00;;;13.00
19644;BMP180;9970;-36.854;174.870;2023-08-06T08:36:53;102033.00;;;13.00
19644;BMP180;9970;-36.854;174.870;2023-08-06T08:39:26;102045.00;;;13.00
19644;BMP180;9970;-36.854;174.870;2023-08-06T08:41:59;102042.00;;;13.00
19644;BMP180;9970;-36.854;174.870;2023-08-06T08:44:32;102046.00;;;13.00
19644;BMP180;9970;-36.854;174.870;2023-08-06T08:47:07;102048.00;;;13.00
19644;BMP180;9970;-36.854;174.870;2023-08-06T08:49:41;102043.00;;;13.00
19644;BMP180;9970;-36.854;174.870;2023-08-06T08:52:16;102042.00;;;13.00
19644;BMP180;9970;-36.854;174.870;2023-08-06T08:54:50;102048.00;;;13.00
19644;BMP180;9970;-36.854;174.870;2023-08-06T08:57:24;102058.00;;;13.00
19644;BMP180;9970;-36.854;174.870;2023-08-06T08:59:57;102044.00;;;13.00
19644;BMP180;9970;-36.854;174.870;2023-08-06T09:02:33;102050.00;;;13.00
19644;BMP180;9970;-36.854;174.870;2023-08-06T09:05:07;102041.00;;;13.00
19644;BMP180;9970;-36.854;174.870;2023-08-06T09:07:42;102052.00;;;13.00
19644;BMP180;9970;-36.854;174.870;2023-08-06T09:10:20;102047.00;;;13.00
19644;BMP180;9970;-36.854;174.870;2023-08-06T09:12:57;102048.00;;;13.00
19644;BMP180;9970;-36.854;174.870;2023-08-06T09:15:31;102050.00;;;13.00
19644;BMP180;9970;-36.854;174.870;2023-08-06T09:18:09;102052.00;;;13.00
19644;BMP180;9970;-36.854;174.870;2023-08-06T09:20:40;102047.00;;;13.00
19644;BMP180;9970;-36.854;174.870;2023-08-06T09:23:13;102040.00;;;13.00
19644;BMP180;9970;-36.854;174.870;2023-08-06T09:25:47;102045.00;;;13.00
19644;BMP180;9970;-36.854;174.870;2023-08-06T09:28:19;102049.00;;;12.90
19644;BMP180;9970;-36.854;174.870;2023-08-06T09:30:53;102040.00;;;12.90
19644;BMP180;9970;-36.854;174.870;2023-08-06T09:33:29;102040.00;;;12.90
19644;BMP180;9970;-36.854;174.870;2023-08-06T09:36:10;102040.00;;;12.90
19644;BMP180;9970;-36.854;174.870;2023-08-06T09:38:42;102031.00;;;12.90
19644;BMP180;9970;-36.854;174.870;2023-08-06T09:41:34;102030.00;;;12.90
19644;BMP180;9970;-36.854;174.870;2023-08-06T09:43:52;102031.00;;;12.90
19644;BMP180;9970;-36.854;174.870;2023-08-06T09:46:26;102035.00;;;12.90
19644;BMP180;9970;-36.854;174.870;2023-08-06T09:49:00;102026.00;;;12.90
19644;BMP180;9970;-36.854;174.870;2023-08-06T09:51:35;102024.00;;;12.90
19644;BMP180;9970;-36.854;174.870;2023-08-06T09:54:11;102015.00;;;12.90
19644;BMP180;9970;-36.854;174.870;2023-08-06T09:56:46;102024.00;;;12.90
19644;BMP180;9970;-36.854;174.870;2023-08-06T09:59:20;102011.00;;;12.90
19644;BMP180;9970;-36.854;174.870;2023-08-06T10:01:54;102023.00;;;12.90
19644;BMP180;9970;-36.854;174.870;2023-08-06T10:04:27;102018.00;;;12.90
19644;BMP180;9970;-36.854;174.870;2023-08-06T10:07:02;102016.00;;;12.90
19644;BMP180;9970;-36.854;174.870;2023-08-06T10:09:36;102020.00;;;12.90
19644;BMP180;9970;-36.854;174.870;2023-08-06T10:12:09;102013.00;;;12.90
19644;BMP180;9970;-36.854;174.870;2023-08-06T10:14:42;102021.00;;;12.90
19644;BMP180;9970;-36.854;174.870;2023-08-06T10:17:15;102013.00;;;12.90
19644;BMP180;9970;-36.854;174.870;2023-08-06T10:19:49;102011.00;;;12.90
19644;BMP180;9970;-36.854;174.870;2023-08-06T10:22:22;102013.00;;;12.90
19644;BMP180;9970;-36.854;174.870;2023-08-06T10:24:57;102021.00;;;13.00
19644;BMP180;9970;-36.854;174.870;2023-08-06T10:27:40;102016.00;;;12.90
19644;BMP180;9970;-36.854;174.870;2023-08-06T10:30:29;102014.00;;;12.90
19644;BMP180;9970;-36.854;174.870;2023-08-06T10:33:06;102020.00;;;12.90
19644;BMP180;9970;-36.854;174.870;2023-08-06T10:35:43;102011.00;;;12.90
19644;BMP180;9970;-36.854;174.870;2023-08-06T10:38:18;102011.00;;;12.90
19644;BMP180;9970;-36.854;174.870;2023-08-06T10:43:34;102004.00;;;12.90
19644;BMP180;9970;-36.854;174.870;2023-08-06T10:46:21;102001.00;;;12.90
19644;BMP180;9970;-36.854;174.870;2023-08-06T10:48:46;101997.00;;;12.90
19644;BMP180;9970;-36.854;174.870;2023-08-06T10:51:19;101998.00;;;12.90
19644;BMP180;9970;-36.854;174.870;2023-08-06T10:53:52;101985.00;;;12.90
19644;BMP180;9970;-36.854;174.870;2023-08-06T10:56:26;101993.00;;;12.90
19644;BMP180;9970;-36.854;174.870;2023-08-06T10:59:03;101988.00;;;12.90
19644;BMP180;9970;-36.854;174.870;2023-08-06T11:01:36;101993.00;;;12.90
19644;BMP180;9970;-36.854;174.870;2023-08-06T11:04:10;101990.00;;;12.90
19644;BMP180;9970;-36.854;174.870;2023-08-06T11:06:45;101991.00;;;12.90
19644;BMP180;9970;-36.854;174.870;2023-08-06T11:09:19;101987.00;;;12.90
19644;BMP180;9970;-36.854;174.870;2023-08-06T11:11:52;101987.00;;;12.90
19644;BMP180;9970;-36.854;174.870;2023-08-06T11:14:25;101986.00;;;12.90
19644;BMP180;9970;-36.854;174.870;2023-08-06T11:17:02;101990.00;;;12.80
19644;BMP180;9970;-36.854;174.870;2023-08-06T11:19:39;101991.00;;;12.80
19644;BMP180;9970;-36.854;174.870;2023-08-06T11:22:14;101991.00;;;12.80
19644;BMP180;9970;-36.854;174.870;2023-08-06T11:24:46;101995.00;;;12.80
19644;BMP180;9970;-36.854;174.870;2023-08-06T11:27:19;101994.00;;;12.80
19644;BMP180;9970;-36.854;174.870;2023-08-06T11:29:52;101983.00;;;12.80
19644;BMP180;9970;-36.854;174.870;2023-08-06T11:32:25;101985.00;;;12.80
19644;BMP180;9970;-36.854;174.870;2023-08-06T11:34:59;101983.00;;;12.80
19644;BMP180;9970;-36.854;174.870;2023-08-06T11:37:31;101964.00;;;12.80
19644;BMP180;9970;-36.854;174.870;2023-08-06T11:40:08;101966.00;;;12.80
19644;BMP180;9970;-36.854;174.870;2023-08-06T11:42:42;101971.00;;;12.80
19644;BMP180;9970;-36.854;174.870;2023-08-06T11:45:15;101970.00;;;12.80
19644;BMP180;9970;-36.854;174.870;2023-08-06T11:47:51;101967.00;;;12.80
19644;BMP180;9970;-36.854;174.870;2023-08-06T11:50:28;101962.00;;;12.80
19644;BMP180;9970;-36.854;174.870;2023-08-06T11:53:01;101966.00;;;12.80
19644;BMP180;9970;-36.854;174.870;2023-08-06T11:55:35;101955.00;;;12.80
19644;BMP180;9970;-36.854;174.870;2023-08-06T11:58:09;101959.00;;;12.80
19644;BMP180;9970;-36.854;174.870;2023-08-06T12:00:43;101957.00;;;12.80
19644;BMP180;9970;-36.854;174.870;2023-08-06T12:03:18;101953.00;;;12.80
19644;BMP180;9970;-36.854;174.870;2023-08-06T12:05:53;101958.00;;;12.80
19644;BMP180;9970;-36.854;174.870;2023-08-06T12:08:29;101947.00;;;12.80
19644;BMP180;9970;-36.854;174.870;2023-08-06T12:11:01;101950.00;;;12.80
19644;BMP180;9970;-36.854;174.870;2023-08-06T12:13:35;101948.00;;;12.80
19644;BMP180;9970;-36.854;174.870;2023-08-06T12:16:08;101940.00;;;12.80
19644;BMP180;9970;-36.854;174.870;2023-08-06T12:18:41;101945.00;;;12.80
19644;BMP180;9970;-36.854;174.870;2023-08-06T12:21:14;101939.00;;;12.80
19644;BMP180;9970;-36.854;174.870;2023-08-06T12:23:52;101939.00;;;12.80
19644;BMP180;9970;-36.854;174.870;2023-08-06T12:26:25;101934.00;;;12.80
19644;BMP180;9970;-36.854;174.870;2023-08-06T12:28:58;101936.00;;;12.80
19644;BMP180;9970;-36.854;174.870;2023-08-06T12:31:31;101933.00;;;12.90
19644;BMP180;9970;-36.854;174.870;2023-08-06T12:34:08;101926.00;;;12.90
19644;BMP180;9970;-36.854;174.870;2023-08-06T12:36:40;101943.00;;;12.90
19644;BMP180;9970;-36.854;174.870;2023-08-06T12:39:14;101926.00;;;12.90
19644;BMP180;9970;-36.854;174.870;2023-08-06T12:41:46;101926.00;;;12.90
19644;BMP180;9970;-36.854;174.870;2023-08-06T12:44:20;101926.00;;;12.90
19644;BMP180;9970;-36.854;174.870;2023-08-06T12:46:53;101930.00;;;12.90
19644;BMP180;9970;-36.854;174.870;2023-08-06T12:49:26;101930.00;;;12.90
19644;BMP180;9970;-36.854;174.870;2023-08-06T12:52:00;101924.00;;;12.90
19644;BMP180;9970;-36.854;174.870;2023-08-06T12:54:33;101918.00;;;12.90
19644;BMP180;9970;-36.854;174.870;2023-08-06T12:57:08;101925.00;;;12.90
19644;BMP180;9970;-36.854;174.870;2023-08-06T12:59:41;101915.00;;;12.90
19644;BMP180;9970;-36.854;174.870;2023-08-06T13:02:14;101910.00;;;12.90
19644;BMP180;9970;-36.854;174.870;2023-08-06T13:04:48;101924.00;;;12.90
19644;BMP180;9970;-36.854;174.870;2023-08-06T13:07:21;101906.00;;;12.90
19644;BMP180;9970;-36.854;174.870;2023-08-06T13:09:54;101911.00;;;12.90
19644;BMP180;9970;-36.854;174.870;2023-08-06T13:12:27;101911.00;;;12.90
19644;BMP180;9970;-36.854;174.870;2023-08-06T13:15:00;101912.00;;;12.90
19644;BMP180;9970;-36.854;174.870;2023-08-06T13:17:33;101902.00;;;12.90
19644;BMP180;9970;-36.854;174.870;2023-08-06T13:20:07;101902.00;;;12.90
19644;BMP180;9970;-36.854;174.870;2023-08-06T13:22:40;101889.00;;;12.90
19644;BMP180;9970;-36.854;174.870;2023-08-06T13:25:14;101891.00;;;12.90
19644;BMP180;9970;-36.854;174.870;2023-08-06T13:27:48;101896.00;;;12.90
19644;BMP180;9970;-36.854;174.870;2023-08-06T13:30:21;101888.00;;;12.90
19644;BMP180;9970;-36.854;174.870;2023-08-06T13:32:54;101888.00;;;12.90
19644;BMP180;9970;-36.854;174.870;2023-08-06T13:35:27;101884.00;;;12.90
19644;BMP180;9970;-36.854;174.870;2023-08-06T13:38:00;101877.00;;;12.90
19644;BMP180;9970;-36.854;174.870;2023-08-06T13:40:36;101873.00;;;12.90
19644;BMP180;9970;-36.854;174.870;2023-08-06T13:43:09;101863.00;;;12.90
19644;BMP180;9970;-36.854;174.870;2023-08-06T13:45:42;101872.00;;;12.90
19644;BMP180;9970;-36.854;174.870;2023-08-06T13:48:15;101861.00;;;12.90
19644;BMP180;9970;-36.854;174.870;2023-08-06T13:50:48;101856.00;;;12.90
19644;BMP180;9970;-36.854;174.870;2023-08-06T13:53:21;101850.00;;;12.90
19644;BMP180;9970;-36.854;174.870;2023-08-06T13:55:56;101844.00;;;12.90
19644;BMP180;9970;-36.854;174.870;2023-08-06T13:58:29;101845.00;;;12.90
19644;BMP180;9970;-36.854;174.870;2023-08-06T14:03:46;101845.00;;;12.90
19644;BMP180;9970;-36.854;174.870;2023-08-06T14:06:23;101846.00;;;12.90
19644;BMP180;9970;-36.854;174.870;2023-08-06T14:08:56;101849.00;;;12.80
19644;BMP180;9970;-36.854;174.870;2023-08-06T14:11:29;101836.00;;;12.80
19644;BMP180;9970;-36.854;174.870;2023-08-06T14:14:02;101848.00;;;12.80
19644;BMP180;9970;-36.854;174.870;2023-08-06T14:16:35;101852.00;;;12.80
19644;BMP180;9970;-36.854;174.870;2023-08-06T14:19:08;101840.00;;;12.80
19644;BMP180;9970;-36.854;174.870;2023-08-06T14:21:41;101836.00;;;12.80
19644;BMP180;9970;-36.854;174.870;2023-08-06T14:24:14;101831.00;;;12.80
19644;BMP180;9970;-36.854;174.870;2023-08-06T14:26:47;101828.00;;;12.80